createdAt,value
2023-04-22T00:00:19.040Z,58.36
2023-04-22T00:03:08.309Z,58.34
2023-04-22T00:05:44.863Z,58.48
2023-04-22T00:08:20.606Z,58.63
2023-04-22T00:10:49.954Z,58.84
2023-04-22T00:13:26.736Z,59.00
2023-04-22T00:16:13.237Z,59.20
2023-04-22T00:18:42.998Z,59.52
2023-04-22T00:21:17.914Z,59.58
2023-04-22T00:23:48.199Z,59.81
2023-04-22T00:26:20.428Z,59.77
2023-04-22T00:29:02.644Z,60.01
2023-04-22T00:31:36.559Z,60.34
2023-04-22T00:34:14.752Z,60.42
2023-04-22T00:36:52.360Z,60.55
2023-04-22T00:39:38.217Z,60.63
2023-04-22T00:42:13.619Z,60.69
2023-04-22T00:44:51.101Z,60.66
2023-04-22T00:47:26.443Z,60.79
2023-04-22T00:50:07.861Z,60.85
2023-04-22T00:52:41.563Z,61.03
2023-04-22T00:55:23.023Z,61.22
2023-04-22T00:57:58.758Z,61.17
2023-04-22T01:00:35.585Z,61.32
2023-04-22T01:03:07.804Z,61.47
2023-04-22T01:05:45.460Z,61.59
2023-04-22T01:08:30.331Z,61.78
2023-04-22T01:11:10.922Z,61.91
2023-04-22T01:13:46.034Z,61.95
2023-04-22T01:16:32.310Z,62.08
2023-04-22T01:19:07.005Z,62.06
2023-04-22T01:21:52.629Z,62.08
2023-04-22T01:24:25.301Z,62.10
2023-04-22T01:26:54.360Z,62.15
2023-04-22T01:29:49.842Z,62.43
2023-04-22T01:32:21.206Z,62.24
2023-04-22T01:34:55.755Z,62.46
2023-04-22T01:37:29.165Z,62.52
2023-04-22T01:40:20.142Z,62.67
2023-04-22T01:42:56.198Z,62.76
2023-04-22T01:45:41.086Z,62.98
2023-04-22T01:48:13.054Z,63.06
2023-04-22T01:50:53.670Z,63.14
2023-04-22T01:53:24.952Z,63.43
2023-04-22T01:55:56.816Z,63.47
2023-04-22T01:58:41.876Z,63.43
2023-04-22T02:01:32.171Z,63.63
2023-04-22T02:04:01.712Z,63.68
2023-04-22T02:06:46.253Z,63.77
2023-04-22T02:09:37.437Z,63.87
2023-04-22T02:12:08.162Z,63.90
2023-04-22T02:14:39.123Z,64.01
2023-04-22T02:17:11.099Z,64.00
2023-04-22T02:19:52.377Z,64.11
2023-04-22T02:22:32.069Z,64.17
2023-04-22T02:25:06.429Z,64.27
2023-04-22T02:27:40.149Z,64.28
2023-04-22T02:30:11.238Z,64.36
2023-04-22T02:32:40.555Z,64.46
2023-04-22T02:35:20.002Z,64.57
2023-04-22T02:37:59.434Z,64.68
2023-04-22T02:40:41.117Z,64.74
2023-04-22T02:43:16.740Z,64.71
2023-04-22T02:45:52.925Z,64.79
2023-04-22T02:48:22.045Z,64.85
2023-04-22T02:50:59.012Z,64.81
2023-04-22T02:53:37.354Z,64.90
2023-04-22T02:56:08.488Z,65.03
2023-04-22T02:58:49.192Z,65.07
2023-04-22T03:01:22.490Z,65.09
2023-04-22T03:04:02.042Z,65.25
2023-04-22T03:06:35.526Z,65.32
2023-04-22T03:09:14.804Z,65.28
2023-04-22T03:11:49.435Z,65.28
2023-04-22T03:14:23.065Z,65.24
2023-04-22T03:16:56.359Z,65.31
2023-04-22T03:19:30.296Z,65.33
2023-04-22T03:22:04.224Z,65.36
2023-04-22T03:24:40.563Z,65.41
2023-04-22T03:27:15.927Z,65.72
2023-04-22T03:29:52.170Z,65.76
2023-04-22T03:32:28.619Z,65.78
2023-04-22T03:35:16.665Z,65.91
2023-04-22T03:37:54.469Z,66.09
2023-04-22T03:40:37.034Z,66.19
2023-04-22T03:43:14.342Z,66.36
2023-04-22T03:45:50.801Z,66.38
2023-04-22T03:48:32.191Z,66.35
2023-04-22T03:51:06.168Z,66.19
2023-04-22T03:53:47.163Z,66.38
2023-04-22T03:56:25.835Z,66.45
2023-04-22T03:58:57.089Z,66.66
2023-04-22T04:01:31.122Z,66.69
2023-04-22T04:04:06.514Z,66.72
2023-04-22T04:06:53.772Z,66.66
2023-04-22T04:09:28.873Z,66.64
2023-04-22T04:11:59.710Z,66.85
2023-04-22T04:14:31.654Z,67.26
2023-04-22T04:17:04.326Z,67.59
2023-04-22T04:19:43.085Z,67.70
2023-04-22T04:22:27.768Z,67.57
2023-04-22T04:25:07.232Z,67.27
2023-04-22T04:27:54.291Z,66.85
2023-04-22T04:30:33.025Z,66.57
2023-04-22T04:33:17.522Z,66.21
2023-04-22T04:36:02.761Z,65.84
2023-04-22T04:38:35.978Z,65.64
2023-04-22T04:41:08.486Z,65.25
2023-04-22T04:43:40.508Z,64.78
2023-04-22T04:46:44.788Z,64.54
2023-04-22T04:49:13.875Z,64.43
2023-04-22T04:51:50.727Z,64.32
2023-04-22T04:54:25.214Z,64.18
2023-04-22T04:56:58.274Z,64.02
2023-04-22T04:59:28.121Z,63.77
2023-04-22T05:02:00.338Z,63.42
2023-04-22T05:04:34.453Z,63.08
2023-04-22T05:07:14.052Z,62.71
2023-04-22T05:09:43.558Z,62.46
2023-04-22T05:12:18.309Z,62.31
2023-04-22T05:14:53.008Z,62.10
2023-04-22T05:17:30.501Z,61.87
2023-04-22T05:20:07.310Z,61.79
2023-04-22T05:22:48.095Z,61.52
2023-04-22T05:25:28.136Z,61.27
2023-04-22T05:28:04.089Z,60.70
2023-04-22T05:30:43.136Z,60.23
2023-04-22T05:33:15.949Z,60.29
2023-04-22T05:35:51.010Z,60.60
2023-04-22T05:38:25.737Z,60.29
2023-04-22T05:40:56.678Z,59.66
2023-04-22T05:43:31.279Z,58.91
2023-04-22T05:46:14.559Z,57.86
2023-04-22T05:48:44.060Z,57.23
2023-04-22T05:51:27.096Z,56.67
2023-04-22T05:53:58.856Z,56.04
2023-04-22T05:56:31.217Z,55.19
2023-04-22T05:59:03.038Z,54.27
2023-04-22T06:01:31.860Z,53.31
2023-04-22T06:04:11.231Z,52.61
2023-04-22T06:06:48.101Z,52.46
2023-04-22T06:09:21.061Z,51.70
2023-04-22T06:11:50.363Z,50.26
2023-04-22T06:14:23.974Z,49.23
2023-04-22T06:16:56.046Z,48.37
2023-04-22T06:19:25.145Z,46.92
2023-04-22T06:22:00.451Z,46.24
2023-04-22T06:24:46.431Z,45.57
2023-04-22T06:27:33.661Z,44.43
2023-04-22T06:30:14.333Z,43.65
2023-04-22T06:32:44.879Z,43.17
2023-04-22T06:35:15.588Z,42.26
2023-04-22T06:37:49.002Z,41.42
2023-04-22T06:40:20.215Z,39.57
2023-04-22T06:42:56.025Z,38.34
2023-04-22T06:46:06.266Z,38.24
2023-04-22T06:48:59.242Z,38.23
2023-04-22T06:51:45.808Z,37.87
2023-04-22T06:54:19.655Z,37.66
2023-04-22T06:56:48.752Z,36.88
2023-04-22T06:59:27.229Z,36.61
2023-04-22T07:02:07.769Z,35.78
2023-04-22T07:04:44.421Z,34.72
2023-04-22T07:07:21.984Z,34.35
2023-04-22T07:09:52.944Z,33.82
2023-04-22T07:12:27.312Z,33.12
2023-04-22T07:14:56.121Z,32.22
2023-04-22T07:17:27.691Z,31.35
2023-04-22T07:19:56.283Z,31.06
2023-04-22T07:22:32.513Z,30.65
2023-04-22T07:25:01.199Z,30.73
2023-04-22T07:27:47.593Z,30.27
2023-04-22T07:30:24.999Z,29.28
2023-04-22T07:33:00.170Z,28.78
2023-04-22T07:35:34.137Z,28.78
2023-04-22T07:38:04.050Z,28.50
2023-04-22T07:40:34.258Z,28.39
2023-04-22T07:43:03.136Z,27.90
2023-04-22T07:45:37.744Z,28.51
2023-04-22T07:48:10.231Z,27.28
2023-04-22T07:51:16.515Z,26.77
2023-04-22T07:54:00.992Z,25.97
2023-04-22T07:56:32.152Z,26.32
2023-04-22T07:59:06.726Z,26.52
2023-04-22T08:01:40.806Z,26.20
2023-04-22T08:04:15.085Z,25.74
2023-04-22T08:06:50.844Z,25.47
2023-04-22T08:09:38.542Z,25.70
2023-04-22T08:12:14.027Z,25.89
2023-04-22T08:14:44.185Z,25.96
2023-04-22T08:17:21.572Z,25.99
2023-04-22T08:19:51.553Z,25.81
2023-04-22T08:22:25.228Z,25.34
2023-04-22T08:25:06.848Z,24.85
2023-04-22T08:28:17.887Z,24.93
2023-04-22T08:30:55.527Z,24.71
2023-04-22T08:33:32.509Z,24.31
2023-04-22T08:36:08.755Z,23.75
2023-04-22T08:39:12.076Z,24.10
2023-04-22T08:42:56.248Z,23.68
2023-04-22T08:55:10.068Z,22.52
2023-04-22T08:57:54.304Z,21.31
2023-04-22T09:00:43.050Z,20.91
2023-04-22T09:03:18.150Z,20.91
2023-04-22T09:05:53.595Z,21.21
2023-04-22T09:08:29.797Z,21.31
2023-04-22T09:11:05.311Z,20.95
2023-04-22T09:13:43.131Z,20.38
2023-04-22T09:16:45.161Z,20.11
2023-04-22T09:19:38.308Z,19.36
2023-04-22T09:25:27.434Z,18.22
2023-04-22T09:28:18.588Z,18.23
2023-04-22T09:31:09.055Z,17.84
2023-04-22T09:33:44.429Z,17.69
2023-04-22T09:36:21.907Z,17.42
2023-04-22T09:39:20.332Z,17.26
2023-04-22T09:42:29.899Z,17.88
2023-04-22T09:45:24.658Z,17.98
2023-04-22T09:48:26.122Z,18.00
2023-04-22T09:51:21.280Z,18.10
2023-04-22T09:54:10.966Z,17.47
2023-04-22T09:56:59.465Z,17.26
2023-04-22T09:59:38.479Z,17.80
2023-04-22T10:02:17.238Z,17.55
2023-04-22T10:04:58.101Z,17.08
2023-04-22T10:07:46.061Z,17.19
2023-04-22T10:10:38.270Z,17.64
2023-04-22T10:13:34.533Z,18.24
2023-04-22T10:16:05.433Z,18.27
2023-04-22T10:18:58.839Z,17.95
2023-04-22T10:21:45.862Z,17.07
2023-04-22T10:24:49.369Z,17.86
2023-04-22T10:28:23.341Z,18.07
2023-04-22T10:31:47.254Z,17.67
2023-04-22T10:34:48.149Z,17.28
2023-04-22T10:37:28.358Z,17.20
2023-04-22T10:40:26.619Z,17.40
2023-04-22T10:43:06.650Z,17.75
2023-04-22T10:45:51.931Z,18.16
2023-04-22T10:49:07.239Z,18.69
2023-04-22T10:52:18.082Z,18.70
2023-04-22T10:55:07.115Z,18.93
2023-04-22T10:58:05.230Z,19.30
2023-04-22T11:01:05.356Z,19.67
2023-04-22T11:03:55.167Z,19.65
2023-04-22T11:06:50.193Z,19.96
2023-04-22T11:09:49.408Z,20.34
2023-04-22T11:16:18.867Z,21.22
2023-04-22T11:19:40.175Z,21.38
2023-04-22T11:22:30.201Z,21.58
2023-04-22T11:25:48.756Z,21.79
2023-04-22T11:29:51.978Z,21.73
2023-04-22T11:33:03.115Z,21.80
2023-04-22T11:36:31.583Z,22.71
2023-04-22T11:39:11.043Z,22.64
2023-04-22T11:42:16.282Z,22.68
2023-04-22T11:44:55.653Z,22.82
2023-04-22T11:47:23.625Z,23.01
2023-04-22T11:50:01.529Z,23.14
2023-04-22T11:53:03.775Z,23.22
2023-04-22T11:55:52.741Z,23.58
2023-04-22T11:58:42.521Z,23.70
2023-04-22T12:01:26.274Z,23.79
2023-04-22T12:04:13.791Z,23.80
2023-04-22T12:06:58.695Z,24.06
2023-04-22T12:09:42.207Z,24.16
2023-04-22T12:12:43.231Z,24.01
2023-04-22T12:16:06.982Z,23.60
2023-04-22T12:18:40.020Z,23.58
2023-04-22T12:21:17.769Z,23.78
2023-04-22T12:24:23.182Z,24.16
2023-04-22T12:27:08.221Z,24.29
2023-04-22T12:30:00.187Z,24.58
2023-04-22T12:32:51.161Z,24.87
2023-04-22T12:35:30.134Z,24.93
2023-04-22T12:38:17.242Z,25.11
2023-04-22T12:40:54.241Z,25.28
2023-04-22T12:43:35.752Z,25.06
2023-04-22T12:46:40.663Z,24.97
2023-04-22T12:53:17.380Z,24.86
2023-04-22T12:55:57.458Z,24.59
2023-04-22T12:58:39.321Z,24.67
2023-04-22T13:01:13.899Z,24.72
2023-04-22T13:04:09.270Z,24.91
2023-04-22T13:11:36.937Z,25.14
2023-04-22T13:14:11.369Z,25.02
2023-04-22T13:17:00.013Z,25.11
2023-04-22T13:19:43.450Z,25.37
2023-04-22T13:22:27.450Z,25.38
2023-04-22T13:30:43.392Z,25.17
2023-04-22T13:36:05.980Z,25.54
2023-04-22T13:39:08.881Z,25.50
2023-04-22T13:41:59.180Z,25.46
2023-04-22T13:44:43.883Z,25.63
2023-04-22T13:47:23.651Z,25.53
2023-04-22T13:50:00.350Z,25.27
2023-04-22T13:52:57.072Z,25.28
2023-04-22T13:55:36.154Z,25.25
2023-04-22T13:58:11.158Z,25.06
2023-04-22T14:01:58.793Z,25.05
2023-04-22T14:09:22.370Z,25.00
2023-04-22T14:20:11.728Z,24.12
2023-04-22T14:23:19.763Z,24.04
2023-04-22T14:26:08.228Z,24.01
2023-04-22T14:29:08.836Z,23.95
2023-04-22T14:31:53.310Z,24.17
2023-04-22T14:38:52.706Z,24.27
2023-04-22T14:41:59.868Z,24.04
2023-04-22T14:48:53.470Z,23.58
2023-04-22T15:03:51.885Z,23.18
2023-04-22T15:07:07.449Z,23.26
2023-04-22T15:09:49.276Z,23.03
2023-04-22T15:25:41.178Z,23.46
2023-04-22T15:28:22.395Z,23.37
2023-04-22T15:31:12.822Z,23.22
2023-04-22T15:33:48.517Z,23.10
2023-04-22T15:36:21.496Z,22.99
2023-04-22T15:38:59.123Z,22.80
2023-04-22T15:41:42.081Z,22.92
2023-04-22T15:44:17.668Z,23.07
2023-04-22T15:47:07.564Z,23.26
2023-04-22T15:49:45.440Z,23.11
2023-04-22T15:52:34.111Z,23.13
2023-04-22T15:55:26.180Z,23.12
2023-04-22T15:58:00.051Z,23.22
2023-04-22T16:00:43.779Z,23.14
2023-04-22T16:03:24.046Z,23.14
2023-04-22T16:06:06.737Z,23.39
2023-04-22T16:09:08.529Z,23.68
2023-04-22T16:12:02.850Z,23.94
2023-04-22T16:14:48.356Z,24.08
2023-04-22T16:17:22.906Z,24.12
2023-04-22T16:20:08.150Z,24.53
2023-04-22T16:22:42.466Z,24.54
2023-04-22T16:28:27.063Z,24.96
2023-04-22T16:31:12.283Z,24.95
2023-04-22T16:33:48.906Z,24.96
2023-04-22T16:36:42.011Z,25.26
2023-04-22T16:39:14.137Z,25.29
2023-04-22T16:41:44.338Z,25.34
2023-04-22T16:44:21.830Z,25.22
2023-04-22T16:47:20.630Z,25.32
2023-04-22T16:50:11.809Z,25.20
2023-04-22T16:53:02.189Z,25.24
2023-04-22T16:55:54.154Z,25.22
2023-04-22T16:58:27.829Z,25.17
2023-04-22T17:00:58.435Z,25.14
2023-04-22T17:03:55.089Z,25.19
2023-04-22T17:07:10.429Z,25.28
2023-04-22T17:09:55.443Z,25.29
2023-04-22T17:12:28.071Z,25.29
2023-04-22T17:15:01.280Z,25.36
2023-04-22T17:17:29.420Z,25.49
2023-04-22T17:19:57.600Z,25.51
2023-04-22T17:22:26.784Z,25.71
2023-04-22T17:25:06.473Z,25.83
2023-04-22T17:27:38.939Z,25.80
2023-04-22T17:30:08.968Z,25.86
2023-04-22T17:32:45.263Z,25.99
2023-04-22T17:35:23.044Z,26.17
2023-04-22T17:38:07.576Z,26.18
2023-04-22T17:41:10.791Z,26.23
2023-04-22T17:43:43.051Z,26.42
2023-04-22T17:46:15.563Z,26.57
2023-04-22T17:48:52.565Z,26.90
2023-04-22T17:51:21.753Z,27.28
2023-04-22T17:53:52.540Z,27.46
2023-04-22T17:56:33.176Z,27.59
2023-04-22T17:59:04.159Z,27.86
2023-04-22T18:01:35.963Z,28.00
2023-04-22T18:04:08.389Z,27.92
2023-04-22T18:06:40.317Z,28.03
2023-04-22T18:09:14.903Z,28.02
2023-04-22T18:12:10.920Z,28.15
2023-04-22T18:14:44.223Z,28.47
2023-04-22T18:17:43.327Z,28.61
2023-04-22T18:20:34.868Z,28.91
2023-04-22T18:23:11.158Z,29.34
2023-04-22T18:26:23.373Z,29.52
2023-04-22T18:29:13.401Z,29.74
2023-04-22T18:31:43.158Z,30.02
2023-04-22T18:34:13.072Z,30.19
2023-04-22T18:37:07.625Z,30.43
2023-04-22T18:40:00.517Z,30.78
2023-04-22T18:42:39.649Z,31.18
2023-04-22T18:45:16.608Z,31.50
2023-04-22T18:48:10.904Z,31.85
2023-04-22T18:50:58.273Z,32.24
2023-04-22T18:53:33.829Z,32.64
2023-04-22T18:56:08.121Z,32.99
2023-04-22T18:58:47.725Z,33.38
2023-04-22T19:01:26.873Z,33.79
2023-04-22T19:04:02.864Z,34.16
2023-04-22T19:06:38.100Z,34.22
2023-04-22T19:09:08.692Z,34.49
2023-04-22T19:11:49.718Z,34.74
2023-04-22T19:14:26.873Z,34.99
2023-04-22T19:17:02.118Z,35.18
2023-04-22T19:19:42.187Z,35.35
2023-04-22T19:22:13.848Z,35.40
2023-04-22T19:24:43.648Z,35.54
2023-04-22T19:27:26.649Z,35.97
2023-04-22T19:29:57.815Z,36.43
2023-04-22T19:32:33.267Z,36.84
2023-04-22T19:35:12.272Z,37.27
2023-04-22T19:37:48.803Z,37.73
2023-04-22T19:40:25.397Z,38.09
2023-04-22T19:43:02.716Z,38.50
2023-04-22T19:45:33.487Z,38.94
2023-04-22T19:48:07.954Z,39.20
2023-04-22T19:50:49.323Z,39.55
2023-04-22T19:53:32.686Z,39.95
2023-04-22T19:56:08.128Z,39.89
2023-04-22T19:59:57.377Z,39.78
2023-04-22T20:02:57.821Z,39.91
2023-04-22T20:05:54.254Z,39.93
2023-04-22T20:08:36.229Z,39.86
2023-04-22T20:11:15.244Z,39.97
2023-04-22T20:14:02.850Z,40.36
2023-04-22T20:16:42.331Z,40.65
2023-04-22T20:19:48.148Z,40.74
2023-04-22T20:23:12.641Z,40.78
2023-04-22T20:26:05.924Z,40.96
2023-04-22T20:29:07.973Z,41.15
2023-04-22T20:39:54.268Z,41.37
2023-04-22T20:42:29.464Z,41.47
2023-04-22T20:45:09.235Z,41.38
2023-04-22T20:47:42.555Z,41.64
2023-04-22T20:50:19.108Z,41.84
2023-04-22T20:52:54.321Z,41.94
2023-04-22T20:55:30.990Z,42.02
2023-04-22T20:58:10.944Z,41.97
2023-04-22T21:00:43.702Z,42.11
2023-04-22T21:03:18.741Z,42.36
2023-04-22T21:05:52.740Z,42.60
2023-04-22T21:08:34.392Z,42.88
2023-04-22T21:11:18.225Z,42.91
2023-04-22T21:14:04.627Z,43.02
2023-04-22T21:20:10.693Z,43.88
2023-04-22T21:22:57.135Z,44.21
2023-04-22T21:25:44.493Z,44.42
2023-04-22T21:28:32.339Z,44.86
2023-04-22T21:31:16.320Z,45.26
2023-04-22T21:34:27.484Z,45.34
2023-04-22T21:37:00.419Z,45.48
2023-04-22T21:40:20.253Z,45.60
2023-04-22T21:43:09.022Z,46.23
2023-04-22T21:46:03.774Z,46.64
2023-04-22T21:48:57.285Z,46.93
2023-04-22T21:51:36.602Z,47.21
2023-04-22T21:54:15.440Z,47.30
2023-04-22T21:56:45.067Z,47.43
2023-04-22T21:59:22.824Z,47.75
2023-04-22T22:02:00.513Z,47.88
2023-04-22T22:04:37.276Z,47.94
2023-04-22T22:07:42.635Z,48.02
2023-04-22T22:10:25.848Z,48.13
2023-04-22T22:13:02.837Z,48.11
2023-04-22T22:15:35.350Z,48.12
2023-04-22T22:18:10.928Z,48.38
2023-04-22T22:20:48.687Z,48.23
2023-04-22T22:23:24.281Z,48.34
2023-04-22T22:26:07.448Z,48.54
2023-04-22T22:28:42.621Z,48.54
2023-04-22T22:31:14.747Z,48.47
2023-04-22T22:33:49.062Z,48.44
2023-04-22T22:36:23.077Z,48.52
2023-04-22T22:38:54.430Z,48.60
2023-04-22T22:41:28.856Z,48.93
2023-04-22T22:44:07.971Z,48.68
2023-04-22T22:46:40.350Z,48.59
2023-04-22T22:49:11.999Z,48.68
2023-04-22T22:51:44.517Z,48.80
2023-04-22T22:54:23.250Z,48.88
2023-04-22T22:57:01.546Z,49.02
2023-04-22T22:59:45.075Z,48.93
2023-04-22T23:02:21.325Z,48.92
2023-04-22T23:05:24.412Z,49.09
2023-04-22T23:08:06.912Z,49.09
2023-04-22T23:10:54.819Z,48.99
2023-04-22T23:13:46.797Z,49.24
2023-04-22T23:16:21.409Z,49.32
2023-04-22T23:18:59.823Z,49.31
2023-04-22T23:21:38.608Z,49.39
2023-04-22T23:24:18.679Z,49.36
2023-04-22T23:26:56.247Z,49.38
2023-04-22T23:29:41.726Z,49.52
2023-04-22T23:32:19.828Z,49.59
2023-04-22T23:35:05.894Z,49.44
2023-04-22T23:37:51.894Z,49.66
2023-04-22T23:40:33.615Z,49.93
2023-04-22T23:43:18.279Z,50.05
2023-04-22T23:46:15.252Z,50.13
2023-04-22T23:48:57.720Z,50.53
2023-04-22T23:51:47.381Z,50.49
2023-04-22T23:54:28.509Z,50.56
2023-04-22T23:57:05.375Z,50.57
2023-04-22T23:59:47.376Z,50.61
